sensor_id;sensor_type;location;lat;lon;timestamp;P1;durP1;ratioP1;P2;durP2;ratioP2
7841;SDS011;3966;51.052;13.820;2022-07-30T00:00:57;6.68;;;5.03;;
7841;SDS011;3966;51.052;13.820;2022-07-30T00:03:22;8.07;;;5.60;;
7841;SDS011;3966;51.052;13.820;2022-07-30T00:05:48;14.35;;;5.82;;
7841;SDS011;3966;51.052;13.820;2022-07-30T00:08:13;11.82;;;6.00;;
7841;SDS011;3966;51.052;13.820;2022-07-30T00:10:39;10.77;;;6.00;;
7841;SDS011;3966;51.052;13.820;2022-07-30T00:13:05;10.63;;;6.30;;
7841;SDS011;3966;51.052;13.820;2022-07-30T00:15:31;9.00;;;4.70;;
7841;SDS011;3966;51.052;13.820;2022-07-30T00:17:56;7.60;;;4.80;;
7841;SDS011;3966;51.052;13.820;2022-07-30T00:20:22;6.38;;;4.35;;
7841;SDS011;3966;51.052;13.820;2022-07-30T00:22:47;6.68;;;4.20;;
7841;SDS011;3966;51.052;13.820;2022-07-30T00:25:13;4.13;;;3.78;;
7841;SDS011;3966;51.052;13.820;2022-07-30T00:27:39;8.95;;;4.50;;
7841;SDS011;3966;51.052;13.820;2022-07-30T00:30:05;6.05;;;3.60;;
7841;SDS011;3966;51.052;13.820;2022-07-30T00:32:31;8.43;;;3.95;;
7841;SDS011;3966;51.052;13.820;2022-07-30T00:34:56;4.00;;;3.67;;
7841;SDS011;3966;51.052;13.820;2022-07-30T00:37:22;5.10;;;3.83;;
7841;SDS011;3966;51.052;13.820;2022-07-30T00:39:47;3.63;;;3.35;;
7841;SDS011;3966;51.052;13.820;2022-07-30T00:42:13;4.68;;;4.05;;
7841;SDS011;3966;51.052;13.820;2022-07-30T00:44:38;4.35;;;3.28;;
7841;SDS011;3966;51.052;13.820;2022-07-30T00:47:05;4.47;;;3.65;;
7841;SDS011;3966;51.052;13.820;2022-07-30T00:49:30;5.70;;;4.18;;
7841;SDS011;3966;51.052;13.820;2022-07-30T00:51:56;7.18;;;3.75;;
7841;SDS011;3966;51.052;13.820;2022-07-30T00:54:21;4.60;;;3.80;;
7841;SDS011;3966;51.052;13.820;2022-07-30T00:56:47;6.15;;;3.35;;
7841;SDS011;3966;51.052;13.820;2022-07-30T00:59:13;6.80;;;3.75;;
7841;SDS011;3966;51.052;13.820;2022-07-30T01:01:39;8.40;;;3.97;;
7841;SDS011;3966;51.052;13.820;2022-07-30T01:04:05;4.93;;;4.38;;
7841;SDS011;3966;51.052;13.820;2022-07-30T01:06:35;6.95;;;3.95;;
7841;SDS011;3966;51.052;13.820;2022-07-30T01:09:04;5.15;;;3.92;;
7841;SDS011;3966;51.052;13.820;2022-07-30T01:11:35;6.10;;;3.65;;
7841;SDS011;3966;51.052;13.820;2022-07-30T01:14:06;4.30;;;3.85;;
7841;SDS011;3966;51.052;13.820;2022-07-30T01:16:33;5.43;;;3.92;;
7841;SDS011;3966;51.052;13.820;2022-07-30T01:19:01;4.30;;;3.83;;
7841;SDS011;3966;51.052;13.820;2022-07-30T01:21:50;4.78;;;4.03;;
7841;SDS011;3966;51.052;13.820;2022-07-30T01:24:26;7.97;;;3.95;;
7841;SDS011;3966;51.052;13.820;2022-07-30T01:26:57;8.23;;;3.60;;
7841;SDS011;3966;51.052;13.820;2022-07-30T01:29:23;5.05;;;4.50;;
7841;SDS011;3966;51.052;13.820;2022-07-30T01:31:51;7.90;;;4.45;;
7841;SDS011;3966;51.052;13.820;2022-07-30T01:34:20;6.47;;;4.07;;
7841;SDS011;3966;51.052;13.820;2022-07-30T01:36:46;6.70;;;4.40;;
7841;SDS011;3966;51.052;13.820;2022-07-30T01:39:12;4.20;;;3.80;;
7841;SDS011;3966;51.052;13.820;2022-07-30T01:41:41;6.00;;;4.75;;
7841;SDS011;3966;51.052;13.820;2022-07-30T01:44:08;3.80;;;3.47;;
7841;SDS011;3966;51.052;13.820;2022-07-30T01:46:36;4.97;;;4.45;;
7841;SDS011;3966;51.052;13.820;2022-07-30T01:49:03;5.82;;;4.45;;
7841;SDS011;3966;51.052;13.820;2022-07-30T01:51:29;5.65;;;4.00;;
7841;SDS011;3966;51.052;13.820;2022-07-30T01:53:55;6.00;;;4.03;;
7841;SDS011;3966;51.052;13.820;2022-07-30T01:56:22;5.57;;;4.38;;
7841;SDS011;3966;51.052;13.820;2022-07-30T01:58:50;6.22;;;4.78;;
7841;SDS011;3966;51.052;13.820;2022-07-30T02:01:18;5.07;;;4.40;;
7841;SDS011;3966;51.052;13.820;2022-07-30T02:03:43;4.80;;;4.32;;
7841;SDS011;3966;51.052;13.820;2022-07-30T02:06:12;5.47;;;3.88;;
7841;SDS011;3966;51.052;13.820;2022-07-30T02:08:47;7.45;;;4.65;;
7841;SDS011;3966;51.052;13.820;2022-07-30T02:11:19;6.32;;;4.22;;
7841;SDS011;3966;51.052;13.820;2022-07-30T02:14:25;5.95;;;4.70;;
7841;SDS011;3966;51.052;13.820;2022-07-30T02:16:52;8.80;;;4.15;;
7841;SDS011;3966;51.052;13.820;2022-07-30T02:19:20;6.18;;;4.50;;
7841;SDS011;3966;51.052;13.820;2022-07-30T02:21:51;5.70;;;4.80;;
7841;SDS011;3966;51.052;13.820;2022-07-30T02:24:25;6.55;;;4.70;;
7841;SDS011;3966;51.052;13.820;2022-07-30T02:26:55;8.52;;;4.38;;
7841;SDS011;3966;51.052;13.820;2022-07-30T02:29:26;7.35;;;4.53;;
7841;SDS011;3966;51.052;13.820;2022-07-30T02:31:54;6.88;;;4.35;;
7841;SDS011;3966;51.052;13.820;2022-07-30T02:34:21;6.03;;;4.55;;
7841;SDS011;3966;51.052;13.820;2022-07-30T02:36:49;7.15;;;5.05;;
7841;SDS011;3966;51.052;13.820;2022-07-30T02:39:16;6.03;;;4.32;;
7841;SDS011;3966;51.052;13.820;2022-07-30T02:41:43;5.03;;;4.53;;
7841;SDS011;3966;51.052;13.820;2022-07-30T02:44:09;6.53;;;4.60;;
7841;SDS011;3966;51.052;13.820;2022-07-30T02:46:36;8.95;;;5.00;;
7841;SDS011;3966;51.052;13.820;2022-07-30T02:49:03;6.30;;;4.63;;
7841;SDS011;3966;51.052;13.820;2022-07-30T02:51:30;5.72;;;5.20;;
7841;SDS011;3966;51.052;13.820;2022-07-30T02:53:57;5.15;;;4.60;;
7841;SDS011;3966;51.052;13.820;2022-07-30T02:56:25;8.07;;;5.35;;
7841;SDS011;3966;51.052;13.820;2022-07-30T02:58:53;5.97;;;4.65;;
7841;SDS011;3966;51.052;13.820;2022-07-30T03:01:20;4.63;;;4.22;;
7841;SDS011;3966;51.052;13.820;2022-07-30T03:03:47;6.85;;;4.75;;
7841;SDS011;3966;51.052;13.820;2022-07-30T03:06:15;7.57;;;5.00;;
7841;SDS011;3966;51.052;13.820;2022-07-30T03:08:42;5.38;;;4.53;;
7841;SDS011;3966;51.052;13.820;2022-07-30T03:11:12;5.53;;;4.80;;
7841;SDS011;3966;51.052;13.820;2022-07-30T03:13:41;5.30;;;4.80;;
7841;SDS011;3966;51.052;13.820;2022-07-30T03:16:07;8.10;;;4.93;;
7841;SDS011;3966;51.052;13.820;2022-07-30T03:18:35;8.57;;;5.18;;
7841;SDS011;3966;51.052;13.820;2022-07-30T03:21:02;9.25;;;5.38;;
7841;SDS011;3966;51.052;13.820;2022-07-30T03:23:32;5.63;;;4.78;;
7841;SDS011;3966;51.052;13.820;2022-07-30T03:26:01;9.50;;;5.82;;
7841;SDS011;3966;51.052;13.820;2022-07-30T03:28:30;7.35;;;5.32;;
7841;SDS011;3966;51.052;13.820;2022-07-30T03:30:57;8.88;;;5.63;;
7841;SDS011;3966;51.052;13.820;2022-07-30T03:33:24;8.05;;;5.18;;
7841;SDS011;3966;51.052;13.820;2022-07-30T03:35:51;7.05;;;5.70;;
7841;SDS011;3966;51.052;13.820;2022-07-30T03:38:17;5.57;;;4.20;;
7841;SDS011;3966;51.052;13.820;2022-07-30T03:40:44;9.07;;;5.30;;
7841;SDS011;3966;51.052;13.820;2022-07-30T03:43:10;5.97;;;4.75;;
7841;SDS011;3966;51.052;13.820;2022-07-30T03:45:37;8.73;;;5.22;;
7841;SDS011;3966;51.052;13.820;2022-07-30T03:48:08;6.68;;;4.68;;
7841;SDS011;3966;51.052;13.820;2022-07-30T03:50:36;6.32;;;5.30;;
7841;SDS011;3966;51.052;13.820;2022-07-30T03:53:03;5.82;;;5.15;;
7841;SDS011;3966;51.052;13.820;2022-07-30T03:55:30;6.05;;;5.10;;
7841;SDS011;3966;51.052;13.820;2022-07-30T03:57:56;13.60;;;5.05;;
7841;SDS011;3966;51.052;13.820;2022-07-30T04:00:22;5.50;;;5.00;;
7841;SDS011;3966;51.052;13.820;2022-07-30T04:02:48;6.90;;;4.70;;
7841;SDS011;3966;51.052;13.820;2022-07-30T04:05:14;6.40;;;5.40;;
7841;SDS011;3966;51.052;13.820;2022-07-30T04:07:40;6.13;;;5.13;;
7841;SDS011;3966;51.052;13.820;2022-07-30T04:10:06;6.13;;;4.82;;
7841;SDS011;3966;51.052;13.820;2022-07-30T04:12:32;5.63;;;5.07;;
7841;SDS011;3966;51.052;13.820;2022-07-30T04:14:57;5.57;;;4.50;;
7841;SDS011;3966;51.052;13.820;2022-07-30T04:17:26;6.10;;;5.50;;
7841;SDS011;3966;51.052;13.820;2022-07-30T04:19:56;5.85;;;5.00;;
7841;SDS011;3966;51.052;13.820;2022-07-30T04:22:27;6.32;;;5.47;;
7841;SDS011;3966;51.052;13.820;2022-07-30T04:24:56;5.72;;;5.03;;
7841;SDS011;3966;51.052;13.820;2022-07-30T04:27:23;7.22;;;5.45;;
7841;SDS011;3966;51.052;13.820;2022-07-30T04:29:51;9.65;;;5.38;;
7841;SDS011;3966;51.052;13.820;2022-07-30T04:32:17;6.53;;;5.53;;
7841;SDS011;3966;51.052;13.820;2022-07-30T04:34:46;7.53;;;5.28;;
7841;SDS011;3966;51.052;13.820;2022-07-30T04:37:17;6.53;;;5.15;;
7841;SDS011;3966;51.052;13.820;2022-07-30T04:39:44;6.20;;;5.60;;
7841;SDS011;3966;51.052;13.820;2022-07-30T04:42:10;8.05;;;5.85;;
7841;SDS011;3966;51.052;13.820;2022-07-30T04:44:36;7.60;;;5.68;;
7841;SDS011;3966;51.052;13.820;2022-07-30T04:47:01;6.55;;;5.53;;
7841;SDS011;3966;51.052;13.820;2022-07-30T04:49:27;7.90;;;5.63;;
7841;SDS011;3966;51.052;13.820;2022-07-30T04:51:53;8.68;;;5.95;;
7841;SDS011;3966;51.052;13.820;2022-07-30T04:54:20;8.10;;;5.93;;
7841;SDS011;3966;51.052;13.820;2022-07-30T04:56:48;7.18;;;5.70;;
7841;SDS011;3966;51.052;13.820;2022-07-30T04:59:15;7.03;;;6.32;;
7841;SDS011;3966;51.052;13.820;2022-07-30T05:01:41;7.22;;;5.80;;
7841;SDS011;3966;51.052;13.820;2022-07-30T05:04:10;14.18;;;5.93;;
7841;SDS011;3966;51.052;13.820;2022-07-30T05:06:37;6.55;;;5.88;;
7841;SDS011;3966;51.052;13.820;2022-07-30T05:09:05;8.95;;;6.03;;
7841;SDS011;3966;51.052;13.820;2022-07-30T05:11:31;9.23;;;6.55;;
7841;SDS011;3966;51.052;13.820;2022-07-30T05:13:57;8.93;;;5.70;;
7841;SDS011;3966;51.052;13.820;2022-07-30T05:16:22;9.55;;;6.10;;
7841;SDS011;3966;51.052;13.820;2022-07-30T05:18:48;6.78;;;5.72;;
7841;SDS011;3966;51.052;13.820;2022-07-30T05:21:14;7.28;;;5.40;;
7841;SDS011;3966;51.052;13.820;2022-07-30T05:23:39;6.88;;;5.57;;
7841;SDS011;3966;51.052;13.820;2022-07-30T05:26:05;8.48;;;5.90;;
7841;SDS011;3966;51.052;13.820;2022-07-30T05:28:30;6.13;;;5.22;;
7841;SDS011;3966;51.052;13.820;2022-07-30T05:30:56;7.50;;;5.93;;
7841;SDS011;3966;51.052;13.820;2022-07-30T05:33:21;11.00;;;6.53;;
7841;SDS011;3966;51.052;13.820;2022-07-30T05:35:47;10.35;;;6.25;;
7841;SDS011;3966;51.052;13.820;2022-07-30T05:38:13;10.07;;;6.50;;
7841;SDS011;3966;51.052;13.820;2022-07-30T05:40:39;11.73;;;5.88;;
7841;SDS011;3966;51.052;13.820;2022-07-30T05:43:05;10.13;;;5.80;;
7841;SDS011;3966;51.052;13.820;2022-07-30T05:45:30;7.10;;;5.40;;
7841;SDS011;3966;51.052;13.820;2022-07-30T05:47:56;7.25;;;5.43;;
7841;SDS011;3966;51.052;13.820;2022-07-30T05:50:21;11.18;;;5.97;;
7841;SDS011;3966;51.052;13.820;2022-07-30T05:52:47;12.07;;;5.80;;
7841;SDS011;3966;51.052;13.820;2022-07-30T05:55:13;9.50;;;5.22;;
7841;SDS011;3966;51.052;13.820;2022-07-30T05:57:39;7.20;;;5.43;;
7841;SDS011;3966;51.052;13.820;2022-07-30T06:00:08;9.93;;;5.53;;
7841;SDS011;3966;51.052;13.820;2022-07-30T06:02:34;10.07;;;5.65;;
7841;SDS011;3966;51.052;13.820;2022-07-30T06:05:00;12.20;;;5.60;;
7841;SDS011;3966;51.052;13.820;2022-07-30T06:07:26;8.05;;;5.50;;
7841;SDS011;3966;51.052;13.820;2022-07-30T06:09:53;9.27;;;5.28;;
7841;SDS011;3966;51.052;13.820;2022-07-30T06:12:23;6.72;;;5.80;;
7841;SDS011;3966;51.052;13.820;2022-07-30T06:14:49;7.93;;;5.45;;
7841;SDS011;3966;51.052;13.820;2022-07-30T06:17:15;6.88;;;6.10;;
7841;SDS011;3966;51.052;13.820;2022-07-30T06:19:40;8.68;;;5.20;;
7841;SDS011;3966;51.052;13.820;2022-07-30T06:22:06;7.53;;;6.20;;
7841;SDS011;3966;51.052;13.820;2022-07-30T06:24:31;8.82;;;5.68;;
7841;SDS011;3966;51.052;13.820;2022-07-30T06:26:57;8.55;;;6.15;;
7841;SDS011;3966;51.052;13.820;2022-07-30T06:29:22;8.15;;;5.72;;
7841;SDS011;3966;51.052;13.820;2022-07-30T06:31:48;8.25;;;5.90;;
7841;SDS011;3966;51.052;13.820;2022-07-30T06:34:13;7.85;;;5.78;;
7841;SDS011;3966;51.052;13.820;2022-07-30T06:36:39;7.25;;;5.90;;
7841;SDS011;3966;51.052;13.820;2022-07-30T06:39:04;10.02;;;5.70;;
7841;SDS011;3966;51.052;13.820;2022-07-30T06:41:30;8.82;;;6.10;;
7841;SDS011;3966;51.052;13.820;2022-07-30T06:43:55;8.43;;;5.40;;
7841;SDS011;3966;51.052;13.820;2022-07-30T06:46:21;13.93;;;6.90;;
7841;SDS011;3966;51.052;13.820;2022-07-30T06:48:46;7.80;;;5.90;;
7841;SDS011;3966;51.052;13.820;2022-07-30T06:51:11;11.27;;;6.30;;
7841;SDS011;3966;51.052;13.820;2022-07-30T06:53:37;6.93;;;6.03;;
7841;SDS011;3966;51.052;13.820;2022-07-30T06:56:02;9.90;;;5.93;;
7841;SDS011;3966;51.052;13.820;2022-07-30T06:58:28;8.30;;;6.45;;
7841;SDS011;3966;51.052;13.820;2022-07-30T07:00:54;6.15;;;5.43;;
7841;SDS011;3966;51.052;13.820;2022-07-30T07:03:19;6.63;;;5.72;;
7841;SDS011;3966;51.052;13.820;2022-07-30T07:05:45;9.73;;;6.45;;
7841;SDS011;3966;51.052;13.820;2022-07-30T07:08:11;7.95;;;6.00;;
7841;SDS011;3966;51.052;13.820;2022-07-30T07:10:36;8.43;;;5.30;;
7841;SDS011;3966;51.052;13.820;2022-07-30T07:13:02;9.93;;;6.00;;
7841;SDS011;3966;51.052;13.820;2022-07-30T07:15:27;8.43;;;5.68;;
7841;SDS011;3966;51.052;13.820;2022-07-30T07:17:53;10.65;;;5.47;;
7841;SDS011;3966;51.052;13.820;2022-07-30T07:20:19;7.05;;;5.53;;
7841;SDS011;3966;51.052;13.820;2022-07-30T07:22:44;6.50;;;4.93;;
7841;SDS011;3966;51.052;13.820;2022-07-30T07:25:10;8.20;;;5.30;;
7841;SDS011;3966;51.052;13.820;2022-07-30T07:27:36;7.75;;;5.28;;
7841;SDS011;3966;51.052;13.820;2022-07-30T07:30:02;7.63;;;5.32;;
7841;SDS011;3966;51.052;13.820;2022-07-30T07:32:29;5.32;;;4.70;;
7841;SDS011;3966;51.052;13.820;2022-07-30T07:34:54;8.27;;;4.97;;
7841;SDS011;3966;51.052;13.820;2022-07-30T07:37:20;6.68;;;4.35;;
7841;SDS011;3966;51.052;13.820;2022-07-30T07:39:46;8.35;;;4.65;;
7841;SDS011;3966;51.052;13.820;2022-07-30T07:42:11;5.63;;;4.38;;
7841;SDS011;3966;51.052;13.820;2022-07-30T07:44:37;4.95;;;3.97;;
7841;SDS011;3966;51.052;13.820;2022-07-30T07:47:02;5.25;;;4.50;;
7841;SDS011;3966;51.052;13.820;2022-07-30T07:49:28;7.72;;;4.55;;
7841;SDS011;3966;51.052;13.820;2022-07-30T07:51:53;8.85;;;4.30;;
7841;SDS011;3966;51.052;13.820;2022-07-30T07:54:19;8.02;;;4.43;;
7841;SDS011;3966;51.052;13.820;2022-07-30T07:56:44;8.02;;;4.30;;
7841;SDS011;3966;51.052;13.820;2022-07-30T07:59:11;8.15;;;4.30;;
7841;SDS011;3966;51.052;13.820;2022-07-30T08:01:36;8.48;;;4.05;;
7841;SDS011;3966;51.052;13.820;2022-07-30T08:04:02;7.82;;;4.45;;
7841;SDS011;3966;51.052;13.820;2022-07-30T08:06:27;4.10;;;3.70;;
7841;SDS011;3966;51.052;13.820;2022-07-30T08:08:53;6.43;;;4.18;;
7841;SDS011;3966;51.052;13.820;2022-07-30T08:11:19;7.85;;;4.38;;
7841;SDS011;3966;51.052;13.820;2022-07-30T08:13:44;10.40;;;4.40;;
7841;SDS011;3966;51.052;13.820;2022-07-30T08:16:10;6.63;;;4.20;;
7841;SDS011;3966;51.052;13.820;2022-07-30T08:18:36;10.85;;;4.00;;
7841;SDS011;3966;51.052;13.820;2022-07-30T08:21:02;6.88;;;4.15;;
7841;SDS011;3966;51.052;13.820;2022-07-30T08:23:28;5.05;;;3.60;;
7841;SDS011;3966;51.052;13.820;2022-07-30T08:25:55;5.65;;;3.90;;
7841;SDS011;3966;51.052;13.820;2022-07-30T08:28:24;8.23;;;4.10;;
7841;SDS011;3966;51.052;13.820;2022-07-30T08:30:50;6.35;;;3.78;;
7841;SDS011;3966;51.052;13.820;2022-07-30T08:33:16;6.25;;;4.00;;
7841;SDS011;3966;51.052;13.820;2022-07-30T08:35:41;5.88;;;3.92;;
7841;SDS011;3966;51.052;13.820;2022-07-30T08:38:07;8.13;;;3.90;;
7841;SDS011;3966;51.052;13.820;2022-07-30T08:40:33;8.48;;;4.63;;
7841;SDS011;3966;51.052;13.820;2022-07-30T08:43:00;5.78;;;4.35;;
7841;SDS011;3966;51.052;13.820;2022-07-30T08:45:28;5.88;;;4.00;;
7841;SDS011;3966;51.052;13.820;2022-07-30T08:48:01;12.18;;;5.38;;
7841;SDS011;3966;51.052;13.820;2022-07-30T08:50:30;9.55;;;5.93;;
7841;SDS011;3966;51.052;13.820;2022-07-30T08:52:56;14.52;;;6.40;;
7841;SDS011;3966;51.052;13.820;2022-07-30T08:55:22;11.00;;;6.05;;
7841;SDS011;3966;51.052;13.820;2022-07-30T08:57:48;11.00;;;6.88;;
7841;SDS011;3966;51.052;13.820;2022-07-30T09:00:14;9.30;;;7.03;;
7841;SDS011;3966;51.052;13.820;2022-07-30T09:02:40;9.80;;;6.43;;
7841;SDS011;3966;51.052;13.820;2022-07-30T09:05:07;11.63;;;6.97;;
7841;SDS011;3966;51.052;13.820;2022-07-30T09:07:34;7.45;;;5.80;;
7841;SDS011;3966;51.052;13.820;2022-07-30T09:09:59;7.18;;;5.93;;
7841;SDS011;3966;51.052;13.820;2022-07-30T09:12:32;7.40;;;6.22;;
7841;SDS011;3966;51.052;13.820;2022-07-30T09:15:03;8.30;;;5.53;;
7841;SDS011;3966;51.052;13.820;2022-07-30T09:20:25;13.10;;;6.50;;
7841;SDS011;3966;51.052;13.820;2022-07-30T09:22:53;7.28;;;5.63;;
7841;SDS011;3966;51.052;13.820;2022-07-30T09:28:07;10.88;;;5.57;;
7841;SDS011;3966;51.052;13.820;2022-07-30T09:30:44;11.23;;;6.13;;
7841;SDS011;3966;51.052;13.820;2022-07-30T09:33:14;7.20;;;5.72;;
7841;SDS011;3966;51.052;13.820;2022-07-30T09:35:41;11.27;;;5.28;;
7841;SDS011;3966;51.052;13.820;2022-07-30T09:38:07;9.82;;;5.38;;
7841;SDS011;3966;51.052;13.820;2022-07-30T09:40:33;11.05;;;5.78;;
7841;SDS011;3966;51.052;13.820;2022-07-30T09:43:06;5.85;;;5.35;;
7841;SDS011;3966;51.052;13.820;2022-07-30T09:45:34;7.55;;;5.40;;
7841;SDS011;3966;51.052;13.820;2022-07-30T09:48:01;10.10;;;5.53;;
7841;SDS011;3966;51.052;13.820;2022-07-30T09:50:27;10.40;;;6.30;;
7841;SDS011;3966;51.052;13.820;2022-07-30T09:52:53;11.52;;;5.97;;
7841;SDS011;3966;51.052;13.820;2022-07-30T09:55:32;7.72;;;5.20;;
7841;SDS011;3966;51.052;13.820;2022-07-30T09:58:03;10.10;;;4.85;;
7841;SDS011;3966;51.052;13.820;2022-07-30T10:00:30;8.65;;;4.57;;
7841;SDS011;3966;51.052;13.820;2022-07-30T10:03:00;11.10;;;5.00;;
7841;SDS011;3966;51.052;13.820;2022-07-30T10:05:38;8.70;;;4.93;;
7841;SDS011;3966;51.052;13.820;2022-07-30T10:08:20;8.45;;;5.05;;
7841;SDS011;3966;51.052;13.820;2022-07-30T10:11:08;7.82;;;5.03;;
7841;SDS011;3966;51.052;13.820;2022-07-30T10:16:15;12.93;;;6.88;;
7841;SDS011;3966;51.052;13.820;2022-07-30T10:18:41;8.43;;;6.55;;
7841;SDS011;3966;51.052;13.820;2022-07-30T10:21:07;9.10;;;7.20;;
7841;SDS011;3966;51.052;13.820;2022-07-30T10:23:33;14.95;;;7.30;;
7841;SDS011;3966;51.052;13.820;2022-07-30T10:26:00;10.90;;;7.30;;
7841;SDS011;3966;51.052;13.820;2022-07-30T10:28:26;12.60;;;7.78;;
7841;SDS011;3966;51.052;13.820;2022-07-30T10:30:54;9.60;;;6.85;;
7841;SDS011;3966;51.052;13.820;2022-07-30T10:33:21;9.80;;;7.32;;
7841;SDS011;3966;51.052;13.820;2022-07-30T10:35:47;7.80;;;7.00;;
7841;SDS011;3966;51.052;13.820;2022-07-30T10:38:13;10.77;;;7.63;;
7841;SDS011;3966;51.052;13.820;2022-07-30T10:40:47;10.48;;;7.10;;
7841;SDS011;3966;51.052;13.820;2022-07-30T10:43:41;10.23;;;6.75;;
7841;SDS011;3966;51.052;13.820;2022-07-30T10:47:11;13.88;;;6.70;;
7841;SDS011;3966;51.052;13.820;2022-07-30T10:49:24;9.02;;;5.97;;
7841;SDS011;3966;51.052;13.820;2022-07-30T10:51:50;9.40;;;7.18;;
7841;SDS011;3966;51.052;13.820;2022-07-30T10:54:38;10.70;;;7.22;;
7841;SDS011;3966;51.052;13.820;2022-07-30T10:57:12;11.25;;;6.78;;
7841;SDS011;3966;51.052;13.820;2022-07-30T11:02:23;9.20;;;5.90;;
7841;SDS011;3966;51.052;13.820;2022-07-30T11:04:50;9.00;;;5.85;;
7841;SDS011;3966;51.052;13.820;2022-07-30T11:07:44;8.10;;;5.97;;
7841;SDS011;3966;51.052;13.820;2022-07-30T11:13:03;7.47;;;5.53;;
7841;SDS011;3966;51.052;13.820;2022-07-30T11:18:20;8.23;;;5.07;;
7841;SDS011;3966;51.052;13.820;2022-07-30T11:23:43;5.47;;;4.63;;
7841;SDS011;3966;51.052;13.820;2022-07-30T11:26:10;8.43;;;4.97;;
7841;SDS011;3966;51.052;13.820;2022-07-30T11:28:55;4.63;;;3.88;;
7841;SDS011;3966;51.052;13.820;2022-07-30T11:42:30;5.47;;;5.00;;
7841;SDS011;3966;51.052;13.820;2022-07-30T11:47:42;8.32;;;4.60;;
7841;SDS011;3966;51.052;13.820;2022-07-30T11:50:19;6.20;;;5.03;;
7841;SDS011;3966;51.052;13.820;2022-07-30T11:53:08;6.95;;;4.63;;
7841;SDS011;3966;51.052;13.820;2022-07-30T11:55:43;6.50;;;4.43;;
7841;SDS011;3966;51.052;13.820;2022-07-30T11:58:33;6.45;;;3.92;;
7841;SDS011;3966;51.052;13.820;2022-07-30T12:01:14;6.47;;;4.45;;
7841;SDS011;3966;51.052;13.820;2022-07-30T12:03:41;5.80;;;4.10;;
7841;SDS011;3966;51.052;13.820;2022-07-30T12:06:09;6.10;;;4.20;;
7841;SDS011;3966;51.052;13.820;2022-07-30T12:08:47;8.75;;;4.43;;
7841;SDS011;3966;51.052;13.820;2022-07-30T12:11:17;5.70;;;4.40;;
7841;SDS011;3966;51.052;13.820;2022-07-30T12:13:42;10.68;;;4.45;;
7841;SDS011;3966;51.052;13.820;2022-07-30T12:16:18;6.88;;;4.85;;
7841;SDS011;3966;51.052;13.820;2022-07-30T12:18:44;7.13;;;4.88;;
7841;SDS011;3966;51.052;13.820;2022-07-30T12:21:11;9.73;;;4.85;;
7841;SDS011;3966;51.052;13.820;2022-07-30T12:23:40;4.97;;;4.47;;
7841;SDS011;3966;51.052;13.820;2022-07-30T12:26:07;4.90;;;4.10;;
7841;SDS011;3966;51.052;13.820;2022-07-30T12:28:43;5.45;;;3.70;;
7841;SDS011;3966;51.052;13.820;2022-07-30T12:31:10;14.82;;;4.43;;
7841;SDS011;3966;51.052;13.820;2022-07-30T12:33:39;6.93;;;3.85;;
7841;SDS011;3966;51.052;13.820;2022-07-30T12:36:05;6.20;;;3.45;;
7841;SDS011;3966;51.052;13.820;2022-07-30T12:38:30;4.53;;;2.83;;
7841;SDS011;3966;51.052;13.820;2022-07-30T12:41:08;4.85;;;2.92;;
7841;SDS011;3966;51.052;13.820;2022-07-30T12:43:50;5.72;;;3.33;;
7841;SDS011;3966;51.052;13.820;2022-07-30T12:48:48;2.72;;;2.53;;
7841;SDS011;3966;51.052;13.820;2022-07-30T12:51:18;5.00;;;3.38;;
7841;SDS011;3966;51.052;13.820;2022-07-30T12:53:45;7.30;;;4.63;;
7841;SDS011;3966;51.052;13.820;2022-07-30T12:56:13;10.15;;;4.85;;
7841;SDS011;3966;51.052;13.820;2022-07-30T12:58:40;6.13;;;5.10;;
7841;SDS011;3966;51.052;13.820;2022-07-30T13:01:06;5.43;;;4.43;;
7841;SDS011;3966;51.052;13.820;2022-07-30T13:03:32;5.78;;;4.13;;
7841;SDS011;3966;51.052;13.820;2022-07-30T13:06:37;7.18;;;4.90;;
7841;SDS011;3966;51.052;13.820;2022-07-30T13:08:56;5.05;;;4.55;;
7841;SDS011;3966;51.052;13.820;2022-07-30T13:11:36;7.75;;;5.10;;
7841;SDS011;3966;51.052;13.820;2022-07-30T13:14:03;4.00;;;3.70;;
7841;SDS011;3966;51.052;13.820;2022-07-30T13:16:29;5.20;;;3.95;;
7841;SDS011;3966;51.052;13.820;2022-07-30T13:18:56;4.13;;;3.63;;
7841;SDS011;3966;51.052;13.820;2022-07-30T13:21:22;3.72;;;3.40;;
7841;SDS011;3966;51.052;13.820;2022-07-30T13:23:48;5.10;;;3.38;;
7841;SDS011;3966;51.052;13.820;2022-07-30T13:26:14;4.35;;;3.40;;
7841;SDS011;3966;51.052;13.820;2022-07-30T13:28:40;6.60;;;3.05;;
7841;SDS011;3966;51.052;13.820;2022-07-30T13:31:06;4.05;;;2.20;;
7841;SDS011;3966;51.052;13.820;2022-07-30T13:33:33;3.33;;;2.25;;
7841;SDS011;3966;51.052;13.820;2022-07-30T13:35:59;3.88;;;2.45;;
7841;SDS011;3966;51.052;13.820;2022-07-30T13:38:25;2.55;;;2.22;;
7841;SDS011;3966;51.052;13.820;2022-07-30T13:40:51;3.35;;;2.50;;
7841;SDS011;3966;51.052;13.820;2022-07-30T13:43:17;2.72;;;2.53;;
7841;SDS011;3966;51.052;13.820;2022-07-30T13:45:42;4.30;;;2.00;;
7841;SDS011;3966;51.052;13.820;2022-07-30T13:48:08;7.22;;;2.28;;
7841;SDS011;3966;51.052;13.820;2022-07-30T13:50:34;2.55;;;2.10;;
7841;SDS011;3966;51.052;13.820;2022-07-30T13:52:59;4.65;;;2.17;;
7841;SDS011;3966;51.052;13.820;2022-07-30T13:55:25;4.75;;;2.22;;
7841;SDS011;3966;51.052;13.820;2022-07-30T13:57:50;2.20;;;2.00;;
7841;SDS011;3966;51.052;13.820;2022-07-30T14:00:16;6.32;;;2.50;;
7841;SDS011;3966;51.052;13.820;2022-07-30T14:02:41;3.38;;;2.28;;
7841;SDS011;3966;51.052;13.820;2022-07-30T14:05:07;3.05;;;2.50;;
7841;SDS011;3966;51.052;13.820;2022-07-30T14:07:33;2.80;;;2.60;;
7841;SDS011;3966;51.052;13.820;2022-07-30T14:10:00;2.88;;;2.35;;
7841;SDS011;3966;51.052;13.820;2022-07-30T14:12:26;8.57;;;2.30;;
7841;SDS011;3966;51.052;13.820;2022-07-30T14:14:51;4.32;;;2.65;;
7841;SDS011;3966;51.052;13.820;2022-07-30T14:17:17;3.90;;;2.28;;
7841;SDS011;3966;51.052;13.820;2022-07-30T14:19:42;4.20;;;2.10;;
7841;SDS011;3966;51.052;13.820;2022-07-30T14:22:08;5.85;;;2.00;;
7841;SDS011;3966;51.052;13.820;2022-07-30T14:24:33;2.03;;;1.80;;
7841;SDS011;3966;51.052;13.820;2022-07-30T14:26:59;2.40;;;2.10;;
7841;SDS011;3966;51.052;13.820;2022-07-30T14:29:25;3.38;;;2.10;;
7841;SDS011;3966;51.052;13.820;2022-07-30T14:31:51;3.78;;;1.90;;
7841;SDS011;3966;51.052;13.820;2022-07-30T14:34:16;3.97;;;2.00;;
7841;SDS011;3966;51.052;13.820;2022-07-30T14:36:43;4.30;;;2.30;;
7841;SDS011;3966;51.052;13.820;2022-07-30T14:39:08;2.63;;;2.42;;
7841;SDS011;3966;51.052;13.820;2022-07-30T14:41:34;4.43;;;2.35;;
7841;SDS011;3966;51.052;13.820;2022-07-30T14:44:01;4.53;;;2.10;;
7841;SDS011;3966;51.052;13.820;2022-07-30T14:46:27;4.78;;;2.30;;
7841;SDS011;3966;51.052;13.820;2022-07-30T14:48:52;1.70;;;1.60;;
7841;SDS011;3966;51.052;13.820;2022-07-30T14:51:17;1.75;;;1.60;;
7841;SDS011;3966;51.052;13.820;2022-07-30T14:53:43;3.25;;;1.80;;
7841;SDS011;3966;51.052;13.820;2022-07-30T14:56:09;1.75;;;1.60;;
7841;SDS011;3966;51.052;13.820;2022-07-30T14:58:34;1.60;;;1.50;;
7841;SDS011;3966;51.052;13.820;2022-07-30T15:01:00;2.63;;;1.75;;
7841;SDS011;3966;51.052;13.820;2022-07-30T15:03:25;2.55;;;1.60;;
7841;SDS011;3966;51.052;13.820;2022-07-30T15:05:51;2.72;;;1.63;;
7841;SDS011;3966;51.052;13.820;2022-07-30T15:08:16;1.70;;;1.60;;
7841;SDS011;3966;51.052;13.820;2022-07-30T15:10:42;1.70;;;1.60;;
7841;SDS011;3966;51.052;13.820;2022-07-30T15:13:08;2.05;;;1.60;;
7841;SDS011;3966;51.052;13.820;2022-07-30T15:15:33;2.53;;;1.83;;
7841;SDS011;3966;51.052;13.820;2022-07-30T15:17:59;3.58;;;1.70;;
7841;SDS011;3966;51.052;13.820;2022-07-30T15:20:25;2.25;;;1.35;;
7841;SDS011;3966;51.052;13.820;2022-07-30T15:22:50;1.60;;;1.30;;
7841;SDS011;3966;51.052;13.820;2022-07-30T15:25:16;1.63;;;1.52;;
7841;SDS011;3966;51.052;13.820;2022-07-30T15:27:42;2.58;;;1.55;;
7841;SDS011;3966;51.052;13.820;2022-07-30T15:30:07;2.70;;;1.52;;
7841;SDS011;3966;51.052;13.820;2022-07-30T15:32:33;1.80;;;1.70;;
7841;SDS011;3966;51.052;13.820;2022-07-30T15:34:59;1.92;;;1.75;;
7841;SDS011;3966;51.052;13.820;2022-07-30T15:37:24;4.72;;;2.00;;
7841;SDS011;3966;51.052;13.820;2022-07-30T15:39:50;1.58;;;1.45;;